Terminal Aerodrome Forecast
Issued by NWS Sterling, VA

Current Version | Previous Version | Text Only | Print | Product List | Glossary Off
Versions: 1 2 3 4 5 6 7 8 9 10 11 12 13 14 15 16 17 18 19

000
FTUS41 KLWX 260538
TAFDCA
TAF
KDCA 260538Z 2606/2706 20004KT P6SM FEW250
     FM261800 19007KT P6SM SCT050
     FM262000 19008KT P6SM BKN050
     FM270500 19004KT P6SM BKN090=

USA.gov is the U.S. government's official web portal to all federal, state and local government web resources and services.